sensor_id;sensor_type;location;lat;lon;timestamp;P1;durP1;ratioP1;P2;durP2;ratioP2
35969;SDS011;22448;51.298;6.430;2024-01-30T00:00:30;25.30;;;14.65;;
35969;SDS011;22448;51.298;6.430;2024-01-30T00:02:56;24.23;;;15.35;;
35969;SDS011;22448;51.298;6.430;2024-01-30T00:05:23;28.75;;;17.05;;
35969;SDS011;22448;51.298;6.430;2024-01-30T00:07:51;28.60;;;16.00;;
35969;SDS011;22448;51.298;6.430;2024-01-30T00:10:18;29.95;;;17.60;;
35969;SDS011;22448;51.298;6.430;2024-01-30T00:12:45;27.65;;;17.15;;
35969;SDS011;22448;51.298;6.430;2024-01-30T00:15:12;31.65;;;17.08;;
35969;SDS011;22448;51.298;6.430;2024-01-30T00:17:39;29.48;;;17.60;;
35969;SDS011;22448;51.298;6.430;2024-01-30T00:20:06;31.63;;;18.92;;
35969;SDS011;22448;51.298;6.430;2024-01-30T00:22:35;31.13;;;18.98;;
35969;SDS011;22448;51.298;6.430;2024-01-30T00:25:03;32.40;;;18.58;;
35969;SDS011;22448;51.298;6.430;2024-01-30T00:27:30;29.70;;;19.48;;
35969;SDS011;22448;51.298;6.430;2024-01-30T00:29:58;30.27;;;20.02;;
35969;SDS011;22448;51.298;6.430;2024-01-30T00:32:25;37.28;;;20.17;;
35969;SDS011;22448;51.298;6.430;2024-01-30T00:34:52;30.92;;;19.95;;
35969;SDS011;22448;51.298;6.430;2024-01-30T00:37:19;32.05;;;20.50;;
35969;SDS011;22448;51.298;6.430;2024-01-30T00:39:46;32.65;;;20.55;;
35969;SDS011;22448;51.298;6.430;2024-01-30T00:42:13;34.65;;;20.98;;
35969;SDS011;22448;51.298;6.430;2024-01-30T00:44:41;33.75;;;19.83;;
35969;SDS011;22448;51.298;6.430;2024-01-30T00:47:08;32.28;;;19.85;;
35969;SDS011;22448;51.298;6.430;2024-01-30T00:49:35;30.90;;;18.55;;
35969;SDS011;22448;51.298;6.430;2024-01-30T00:52:03;35.38;;;20.27;;
35969;SDS011;22448;51.298;6.430;2024-01-30T00:54:30;30.38;;;19.33;;
35969;SDS011;22448;51.298;6.430;2024-01-30T00:56:57;32.88;;;20.05;;
35969;SDS011;22448;51.298;6.430;2024-01-30T00:59:25;30.20;;;18.77;;
35969;SDS011;22448;51.298;6.430;2024-01-30T01:01:52;31.80;;;18.83;;
35969;SDS011;22448;51.298;6.430;2024-01-30T01:04:19;35.10;;;19.33;;
35969;SDS011;22448;51.298;6.430;2024-01-30T01:06:47;31.70;;;18.42;;
35969;SDS011;22448;51.298;6.430;2024-01-30T01:09:15;30.63;;;18.42;;
35969;SDS011;22448;51.298;6.430;2024-01-30T01:11:42;34.92;;;19.70;;
35969;SDS011;22448;51.298;6.430;2024-01-30T01:14:09;32.00;;;19.40;;
35969;SDS011;22448;51.298;6.430;2024-01-30T01:16:36;29.42;;;18.38;;
35969;SDS011;22448;51.298;6.430;2024-01-30T01:19:04;32.95;;;17.52;;
35969;SDS011;22448;51.298;6.430;2024-01-30T01:21:31;35.17;;;19.00;;
35969;SDS011;22448;51.298;6.430;2024-01-30T01:23:58;29.38;;;18.63;;
35969;SDS011;22448;51.298;6.430;2024-01-30T01:26:25;36.47;;;19.98;;
35969;SDS011;22448;51.298;6.430;2024-01-30T01:28:52;29.98;;;18.98;;
35969;SDS011;22448;51.298;6.430;2024-01-30T01:31:19;28.60;;;18.60;;
35969;SDS011;22448;51.298;6.430;2024-01-30T01:33:49;34.47;;;18.10;;
35969;SDS011;22448;51.298;6.430;2024-01-30T01:36:16;35.92;;;18.13;;
35969;SDS011;22448;51.298;6.430;2024-01-30T01:38:43;31.23;;;17.98;;
35969;SDS011;22448;51.298;6.430;2024-01-30T01:41:10;26.23;;;17.42;;
35969;SDS011;22448;51.298;6.430;2024-01-30T01:43:37;32.35;;;19.27;;
35969;SDS011;22448;51.298;6.430;2024-01-30T01:46:06;31.30;;;17.45;;
35969;SDS011;22448;51.298;6.430;2024-01-30T01:48:33;33.05;;;18.45;;
35969;SDS011;22448;51.298;6.430;2024-01-30T01:51:01;27.90;;;18.55;;
35969;SDS011;22448;51.298;6.430;2024-01-30T01:53:29;33.13;;;18.23;;
35969;SDS011;22448;51.298;6.430;2024-01-30T01:55:56;26.40;;;17.73;;
35969;SDS011;22448;51.298;6.430;2024-01-30T01:58:23;28.70;;;17.58;;
35969;SDS011;22448;51.298;6.430;2024-01-30T02:00:56;27.40;;;19.00;;
35969;SDS011;22448;51.298;6.430;2024-01-30T02:03:24;32.83;;;18.38;;
35969;SDS011;22448;51.298;6.430;2024-01-30T02:05:51;31.83;;;18.35;;
35969;SDS011;22448;51.298;6.430;2024-01-30T02:08:18;36.17;;;18.75;;
35969;SDS011;22448;51.298;6.430;2024-01-30T02:10:45;33.42;;;17.02;;
35969;SDS011;22448;51.298;6.430;2024-01-30T02:13:12;28.00;;;17.77;;
35969;SDS011;22448;51.298;6.430;2024-01-30T02:15:39;29.88;;;17.58;;
35969;SDS011;22448;51.298;6.430;2024-01-30T02:18:07;30.70;;;18.23;;
35969;SDS011;22448;51.298;6.430;2024-01-30T02:20:34;31.17;;;17.73;;
35969;SDS011;22448;51.298;6.430;2024-01-30T02:23:02;29.13;;;17.35;;
35969;SDS011;22448;51.298;6.430;2024-01-30T02:25:33;29.38;;;18.00;;
35969;SDS011;22448;51.298;6.430;2024-01-30T02:28:03;30.35;;;17.73;;
35969;SDS011;22448;51.298;6.430;2024-01-30T02:30:30;29.27;;;17.98;;
35969;SDS011;22448;51.298;6.430;2024-01-30T02:32:57;26.80;;;18.05;;
35969;SDS011;22448;51.298;6.430;2024-01-30T02:35:24;30.70;;;18.10;;
35969;SDS011;22448;51.298;6.430;2024-01-30T02:37:52;28.75;;;18.58;;
35969;SDS011;22448;51.298;6.430;2024-01-30T02:40:19;29.10;;;17.75;;
35969;SDS011;22448;51.298;6.430;2024-01-30T02:42:46;30.80;;;17.08;;
35969;SDS011;22448;51.298;6.430;2024-01-30T02:45:13;32.00;;;18.25;;
35969;SDS011;22448;51.298;6.430;2024-01-30T02:47:40;31.25;;;18.00;;
35969;SDS011;22448;51.298;6.430;2024-01-30T02:50:08;33.65;;;18.25;;
35969;SDS011;22448;51.298;6.430;2024-01-30T02:52:35;29.30;;;17.73;;
35969;SDS011;22448;51.298;6.430;2024-01-30T02:55:02;33.08;;;18.67;;
35969;SDS011;22448;51.298;6.430;2024-01-30T02:57:30;34.88;;;17.83;;
35969;SDS011;22448;51.298;6.430;2024-01-30T02:59:57;29.20;;;17.23;;
35969;SDS011;22448;51.298;6.430;2024-01-30T03:02:24;28.30;;;17.90;;
35969;SDS011;22448;51.298;6.430;2024-01-30T03:04:51;31.67;;;18.63;;
35969;SDS011;22448;51.298;6.430;2024-01-30T03:07:18;31.27;;;17.15;;
35969;SDS011;22448;51.298;6.430;2024-01-30T03:09:46;41.13;;;17.85;;
35969;SDS011;22448;51.298;6.430;2024-01-30T03:12:13;41.58;;;17.85;;
35969;SDS011;22448;51.298;6.430;2024-01-30T03:14:40;31.77;;;17.30;;
35969;SDS011;22448;51.298;6.430;2024-01-30T03:17:07;29.58;;;18.02;;
35969;SDS011;22448;51.298;6.430;2024-01-30T03:19:34;28.33;;;17.45;;
35969;SDS011;22448;51.298;6.430;2024-01-30T03:22:02;27.30;;;17.27;;
35969;SDS011;22448;51.298;6.430;2024-01-30T03:24:29;27.45;;;17.52;;
35969;SDS011;22448;51.298;6.430;2024-01-30T03:26:57;32.65;;;18.38;;
35969;SDS011;22448;51.298;6.430;2024-01-30T03:29:24;28.40;;;17.67;;
35969;SDS011;22448;51.298;6.430;2024-01-30T03:31:51;30.88;;;17.40;;
35969;SDS011;22448;51.298;6.430;2024-01-30T03:34:18;29.38;;;17.80;;
35969;SDS011;22448;51.298;6.430;2024-01-30T03:36:45;31.92;;;17.55;;
35969;SDS011;22448;51.298;6.430;2024-01-30T03:39:12;32.95;;;18.70;;
35969;SDS011;22448;51.298;6.430;2024-01-30T03:41:41;30.45;;;17.25;;
35969;SDS011;22448;51.298;6.430;2024-01-30T03:44:10;35.38;;;17.98;;
35969;SDS011;22448;51.298;6.430;2024-01-30T03:46:37;29.42;;;17.50;;
35969;SDS011;22448;51.298;6.430;2024-01-30T03:49:04;29.85;;;17.55;;
35969;SDS011;22448;51.298;6.430;2024-01-30T03:51:31;30.92;;;17.58;;
35969;SDS011;22448;51.298;6.430;2024-01-30T03:53:58;39.40;;;18.27;;
35969;SDS011;22448;51.298;6.430;2024-01-30T03:56:25;31.30;;;17.05;;
35969;SDS011;22448;51.298;6.430;2024-01-30T03:58:53;24.30;;;16.13;;
35969;SDS011;22448;51.298;6.430;2024-01-30T04:01:20;29.52;;;17.55;;
35969;SDS011;22448;51.298;6.430;2024-01-30T04:03:47;35.20;;;19.48;;
35969;SDS011;22448;51.298;6.430;2024-01-30T04:06:14;30.45;;;17.10;;
35969;SDS011;22448;51.298;6.430;2024-01-30T04:08:41;32.50;;;17.92;;
35969;SDS011;22448;51.298;6.430;2024-01-30T04:11:09;30.38;;;16.73;;
35969;SDS011;22448;51.298;6.430;2024-01-30T04:13:36;37.25;;;18.02;;
35969;SDS011;22448;51.298;6.430;2024-01-30T04:16:03;28.50;;;16.50;;
35969;SDS011;22448;51.298;6.430;2024-01-30T04:18:30;24.80;;;16.02;;
35969;SDS011;22448;51.298;6.430;2024-01-30T04:20:58;28.02;;;16.88;;
35969;SDS011;22448;51.298;6.430;2024-01-30T04:23:25;28.95;;;16.92;;
35969;SDS011;22448;51.298;6.430;2024-01-30T04:25:52;33.10;;;16.40;;
35969;SDS011;22448;51.298;6.430;2024-01-30T04:28:19;34.00;;;16.60;;
35969;SDS011;22448;51.298;6.430;2024-01-30T04:30:46;29.95;;;17.70;;
35969;SDS011;22448;51.298;6.430;2024-01-30T04:33:13;32.50;;;18.23;;
35969;SDS011;22448;51.298;6.430;2024-01-30T04:35:41;31.17;;;18.33;;
35969;SDS011;22448;51.298;6.430;2024-01-30T04:38:08;30.20;;;18.17;;
35969;SDS011;22448;51.298;6.430;2024-01-30T04:40:35;28.92;;;17.83;;
35969;SDS011;22448;51.298;6.430;2024-01-30T04:43:02;36.35;;;18.58;;
35969;SDS011;22448;51.298;6.430;2024-01-30T04:45:29;35.30;;;18.83;;
35969;SDS011;22448;51.298;6.430;2024-01-30T04:47:56;31.42;;;18.05;;
35969;SDS011;22448;51.298;6.430;2024-01-30T04:50:23;32.55;;;18.05;;
35969;SDS011;22448;51.298;6.430;2024-01-30T04:52:50;34.17;;;18.35;;
35969;SDS011;22448;51.298;6.430;2024-01-30T04:55:17;34.97;;;19.23;;
35969;SDS011;22448;51.298;6.430;2024-01-30T04:57:48;33.47;;;17.95;;
35969;SDS011;22448;51.298;6.430;2024-01-30T05:00:16;35.70;;;17.83;;
35969;SDS011;22448;51.298;6.430;2024-01-30T05:02:43;29.42;;;17.88;;
35969;SDS011;22448;51.298;6.430;2024-01-30T05:05:10;35.70;;;18.58;;
35969;SDS011;22448;51.298;6.430;2024-01-30T05:07:38;31.95;;;18.48;;
35969;SDS011;22448;51.298;6.430;2024-01-30T05:10:07;35.92;;;18.40;;
35969;SDS011;22448;51.298;6.430;2024-01-30T05:12:35;31.55;;;18.25;;
35969;SDS011;22448;51.298;6.430;2024-01-30T05:15:02;33.17;;;17.85;;
35969;SDS011;22448;51.298;6.430;2024-01-30T05:17:29;27.08;;;17.65;;
35969;SDS011;22448;51.298;6.430;2024-01-30T05:19:56;39.85;;;18.35;;
35969;SDS011;22448;51.298;6.430;2024-01-30T05:22:23;31.83;;;18.15;;
35969;SDS011;22448;51.298;6.430;2024-01-30T05:24:50;28.70;;;18.00;;
35969;SDS011;22448;51.298;6.430;2024-01-30T05:27:17;28.73;;;17.30;;
35969;SDS011;22448;51.298;6.430;2024-01-30T05:29:44;34.92;;;20.13;;
35969;SDS011;22448;51.298;6.430;2024-01-30T05:32:12;33.65;;;19.77;;
35969;SDS011;22448;51.298;6.430;2024-01-30T05:34:39;33.35;;;18.52;;
35969;SDS011;22448;51.298;6.430;2024-01-30T05:37:06;31.55;;;18.27;;
35969;SDS011;22448;51.298;6.430;2024-01-30T05:39:34;36.95;;;19.63;;
35969;SDS011;22448;51.298;6.430;2024-01-30T05:42:02;41.35;;;20.02;;
35969;SDS011;22448;51.298;6.430;2024-01-30T05:44:29;33.53;;;19.65;;
35969;SDS011;22448;51.298;6.430;2024-01-30T05:46:56;39.40;;;20.33;;
35969;SDS011;22448;51.298;6.430;2024-01-30T05:49:23;33.75;;;19.67;;
35969;SDS011;22448;51.298;6.430;2024-01-30T05:51:50;35.45;;;20.73;;
35969;SDS011;22448;51.298;6.430;2024-01-30T05:54:17;39.22;;;20.50;;
35969;SDS011;22448;51.298;6.430;2024-01-30T05:56:44;35.08;;;20.20;;
35969;SDS011;22448;51.298;6.430;2024-01-30T05:59:11;35.97;;;20.63;;
35969;SDS011;22448;51.298;6.430;2024-01-30T06:01:44;36.80;;;20.88;;
35969;SDS011;22448;51.298;6.430;2024-01-30T06:04:13;38.08;;;20.30;;
35969;SDS011;22448;51.298;6.430;2024-01-30T06:06:40;33.53;;;20.08;;
35969;SDS011;22448;51.298;6.430;2024-01-30T06:09:07;32.92;;;20.80;;
35969;SDS011;22448;51.298;6.430;2024-01-30T06:11:35;38.22;;;19.95;;
35969;SDS011;22448;51.298;6.430;2024-01-30T06:14:02;33.35;;;19.17;;
35969;SDS011;22448;51.298;6.430;2024-01-30T06:16:29;36.50;;;21.30;;
35969;SDS011;22448;51.298;6.430;2024-01-30T06:18:57;32.60;;;18.42;;
35969;SDS011;22448;51.298;6.430;2024-01-30T06:21:25;30.75;;;18.95;;
35969;SDS011;22448;51.298;6.430;2024-01-30T06:23:52;39.88;;;20.05;;
35969;SDS011;22448;51.298;6.430;2024-01-30T06:26:19;35.17;;;19.23;;
35969;SDS011;22448;51.298;6.430;2024-01-30T06:28:46;33.30;;;19.20;;
35969;SDS011;22448;51.298;6.430;2024-01-30T06:31:13;33.88;;;18.65;;
35969;SDS011;22448;51.298;6.430;2024-01-30T06:33:40;32.03;;;18.80;;
35969;SDS011;22448;51.298;6.430;2024-01-30T06:36:08;29.73;;;17.58;;
35969;SDS011;22448;51.298;6.430;2024-01-30T06:38:36;31.58;;;18.00;;
35969;SDS011;22448;51.298;6.430;2024-01-30T06:41:03;31.15;;;17.73;;
35969;SDS011;22448;51.298;6.430;2024-01-30T06:43:30;33.28;;;18.50;;
35969;SDS011;22448;51.298;6.430;2024-01-30T06:45:57;27.25;;;16.90;;
35969;SDS011;22448;51.298;6.430;2024-01-30T06:48:24;31.45;;;18.35;;
35969;SDS011;22448;51.298;6.430;2024-01-30T06:50:53;30.08;;;17.65;;
35969;SDS011;22448;51.298;6.430;2024-01-30T06:53:20;28.98;;;17.63;;
35969;SDS011;22448;51.298;6.430;2024-01-30T06:55:47;27.88;;;17.80;;
35969;SDS011;22448;51.298;6.430;2024-01-30T06:58:15;31.48;;;18.27;;
35969;SDS011;22448;51.298;6.430;2024-01-30T07:00:42;36.33;;;18.63;;
35969;SDS011;22448;51.298;6.430;2024-01-30T07:03:09;29.48;;;18.42;;
35969;SDS011;22448;51.298;6.430;2024-01-30T07:05:36;40.50;;;18.75;;
35969;SDS011;22448;51.298;6.430;2024-01-30T07:08:03;28.60;;;18.58;;
35969;SDS011;22448;51.298;6.430;2024-01-30T07:10:30;29.50;;;18.15;;
35969;SDS011;22448;51.298;6.430;2024-01-30T07:12:58;28.55;;;17.73;;
35969;SDS011;22448;51.298;6.430;2024-01-30T07:15:26;31.10;;;17.80;;
35969;SDS011;22448;51.298;6.430;2024-01-30T07:17:53;36.72;;;18.48;;
35969;SDS011;22448;51.298;6.430;2024-01-30T07:20:20;39.00;;;18.65;;
35969;SDS011;22448;51.298;6.430;2024-01-30T07:22:47;29.48;;;17.40;;
35969;SDS011;22448;51.298;6.430;2024-01-30T07:25:15;32.47;;;17.35;;
35969;SDS011;22448;51.298;6.430;2024-01-30T07:27:43;28.85;;;17.35;;
35969;SDS011;22448;51.298;6.430;2024-01-30T07:30:10;31.73;;;18.40;;
35969;SDS011;22448;51.298;6.430;2024-01-30T07:32:38;31.42;;;17.83;;
35969;SDS011;22448;51.298;6.430;2024-01-30T07:35:05;32.70;;;18.83;;
35969;SDS011;22448;51.298;6.430;2024-01-30T07:37:35;31.40;;;17.98;;
35969;SDS011;22448;51.298;6.430;2024-01-30T07:40:02;30.75;;;18.45;;
35969;SDS011;22448;51.298;6.430;2024-01-30T07:42:31;28.48;;;17.67;;
35969;SDS011;22448;51.298;6.430;2024-01-30T07:44:58;34.58;;;19.17;;
35969;SDS011;22448;51.298;6.430;2024-01-30T07:47:25;28.15;;;17.08;;
35969;SDS011;22448;51.298;6.430;2024-01-30T07:49:52;30.15;;;17.65;;
35969;SDS011;22448;51.298;6.430;2024-01-30T07:52:20;25.85;;;17.80;;
35969;SDS011;22448;51.298;6.430;2024-01-30T07:54:47;32.08;;;17.45;;
35969;SDS011;22448;51.298;6.430;2024-01-30T07:57:15;28.38;;;17.27;;
35969;SDS011;22448;51.298;6.430;2024-01-30T07:59:42;28.73;;;17.23;;
35969;SDS011;22448;51.298;6.430;2024-01-30T08:02:13;30.90;;;17.80;;
35969;SDS011;22448;51.298;6.430;2024-01-30T08:04:41;39.22;;;17.98;;
35969;SDS011;22448;51.298;6.430;2024-01-30T08:07:08;31.08;;;17.67;;
35969;SDS011;22448;51.298;6.430;2024-01-30T08:09:35;31.38;;;17.98;;
35969;SDS011;22448;51.298;6.430;2024-01-30T08:12:03;28.23;;;17.65;;
35969;SDS011;22448;51.298;6.430;2024-01-30T08:14:30;29.85;;;17.05;;
35969;SDS011;22448;51.298;6.430;2024-01-30T08:16:57;30.92;;;17.98;;
35969;SDS011;22448;51.298;6.430;2024-01-30T08:19:24;33.80;;;17.15;;
35969;SDS011;22448;51.298;6.430;2024-01-30T08:21:52;29.85;;;16.65;;
35969;SDS011;22448;51.298;6.430;2024-01-30T08:24:19;24.67;;;16.45;;
35969;SDS011;22448;51.298;6.430;2024-01-30T08:26:46;28.02;;;17.48;;
35969;SDS011;22448;51.298;6.430;2024-01-30T08:29:13;27.27;;;16.90;;
35969;SDS011;22448;51.298;6.430;2024-01-30T08:31:40;26.42;;;16.10;;
35969;SDS011;22448;51.298;6.430;2024-01-30T08:34:07;28.25;;;15.43;;
35969;SDS011;22448;51.298;6.430;2024-01-30T08:36:34;26.77;;;16.83;;
35969;SDS011;22448;51.298;6.430;2024-01-30T08:39:02;30.50;;;16.08;;
35969;SDS011;22448;51.298;6.430;2024-01-30T08:41:31;29.75;;;16.67;;
35969;SDS011;22448;51.298;6.430;2024-01-30T08:43:58;25.80;;;15.80;;
35969;SDS011;22448;51.298;6.430;2024-01-30T08:46:25;29.45;;;16.45;;
35969;SDS011;22448;51.298;6.430;2024-01-30T08:48:53;25.67;;;16.10;;
35969;SDS011;22448;51.298;6.430;2024-01-30T08:51:20;25.05;;;15.32;;
35969;SDS011;22448;51.298;6.430;2024-01-30T08:53:47;28.17;;;16.55;;
35969;SDS011;22448;51.298;6.430;2024-01-30T08:56:14;27.95;;;15.35;;
35969;SDS011;22448;51.298;6.430;2024-01-30T08:58:42;29.30;;;15.88;;
35969;SDS011;22448;51.298;6.430;2024-01-30T09:01:09;29.13;;;16.60;;
35969;SDS011;22448;51.298;6.430;2024-01-30T09:03:37;31.05;;;16.63;;
35969;SDS011;22448;51.298;6.430;2024-01-30T09:06:08;23.55;;;16.02;;
35969;SDS011;22448;51.298;6.430;2024-01-30T09:08:36;30.90;;;16.52;;
35969;SDS011;22448;51.298;6.430;2024-01-30T09:11:09;26.08;;;16.13;;
35969;SDS011;22448;51.298;6.430;2024-01-30T09:13:40;26.10;;;15.73;;
35969;SDS011;22448;51.298;6.430;2024-01-30T09:16:07;30.08;;;15.85;;
35969;SDS011;22448;51.298;6.430;2024-01-30T09:18:34;26.00;;;15.93;;
35969;SDS011;22448;51.298;6.430;2024-01-30T09:21:02;26.00;;;15.15;;
35969;SDS011;22448;51.298;6.430;2024-01-30T09:23:29;25.73;;;14.75;;
35969;SDS011;22448;51.298;6.430;2024-01-30T09:25:56;25.45;;;14.15;;
35969;SDS011;22448;51.298;6.430;2024-01-30T09:28:23;32.42;;;14.68;;
35969;SDS011;22448;51.298;6.430;2024-01-30T09:30:53;28.13;;;15.93;;
35969;SDS011;22448;51.298;6.430;2024-01-30T09:33:19;27.95;;;15.50;;
35969;SDS011;22448;51.298;6.430;2024-01-30T09:35:47;27.83;;;15.68;;
35969;SDS011;22448;51.298;6.430;2024-01-30T09:38:14;27.25;;;15.80;;
35969;SDS011;22448;51.298;6.430;2024-01-30T09:40:41;29.50;;;16.25;;
35969;SDS011;22448;51.298;6.430;2024-01-30T09:43:08;29.60;;;15.52;;
35969;SDS011;22448;51.298;6.430;2024-01-30T09:45:42;29.17;;;14.65;;
35969;SDS011;22448;51.298;6.430;2024-01-30T09:48:11;23.08;;;15.25;;
35969;SDS011;22448;51.298;6.430;2024-01-30T09:50:38;30.92;;;16.67;;
35969;SDS011;22448;51.298;6.430;2024-01-30T09:53:06;28.13;;;16.25;;
35969;SDS011;22448;51.298;6.430;2024-01-30T09:55:35;23.80;;;14.48;;
35969;SDS011;22448;51.298;6.430;2024-01-30T09:58:03;33.13;;;15.95;;
35969;SDS011;22448;51.298;6.430;2024-01-30T10:00:30;26.30;;;15.48;;
35969;SDS011;22448;51.298;6.430;2024-01-30T10:02:57;24.77;;;14.32;;
35969;SDS011;22448;51.298;6.430;2024-01-30T10:05:26;37.83;;;17.17;;
35969;SDS011;22448;51.298;6.430;2024-01-30T10:07:56;31.65;;;15.85;;
35969;SDS011;22448;51.298;6.430;2024-01-30T10:10:25;33.33;;;15.27;;
35969;SDS011;22448;51.298;6.430;2024-01-30T10:12:52;29.17;;;15.00;;
35969;SDS011;22448;51.298;6.430;2024-01-30T10:15:19;24.30;;;14.35;;
35969;SDS011;22448;51.298;6.430;2024-01-30T10:17:47;29.40;;;14.93;;
35969;SDS011;22448;51.298;6.430;2024-01-30T10:20:14;26.17;;;15.30;;
35969;SDS011;22448;51.298;6.430;2024-01-30T10:22:41;25.58;;;14.77;;
35969;SDS011;22448;51.298;6.430;2024-01-30T10:25:11;24.42;;;13.98;;
35969;SDS011;22448;51.298;6.430;2024-01-30T10:27:39;26.23;;;14.32;;
35969;SDS011;22448;51.298;6.430;2024-01-30T10:30:07;25.60;;;13.70;;
35969;SDS011;22448;51.298;6.430;2024-01-30T10:32:34;25.85;;;14.60;;
35969;SDS011;22448;51.298;6.430;2024-01-30T10:35:02;21.65;;;13.68;;
35969;SDS011;22448;51.298;6.430;2024-01-30T10:37:29;22.08;;;12.77;;
35969;SDS011;22448;51.298;6.430;2024-01-30T10:40:01;25.27;;;13.52;;
35969;SDS011;22448;51.298;6.430;2024-01-30T10:42:33;26.60;;;14.00;;
35969;SDS011;22448;51.298;6.430;2024-01-30T10:45:06;24.08;;;13.80;;
35969;SDS011;22448;51.298;6.430;2024-01-30T10:47:49;35.80;;;15.05;;
35969;SDS011;22448;51.298;6.430;2024-01-30T10:50:17;30.88;;;14.13;;
35969;SDS011;22448;51.298;6.430;2024-01-30T10:52:45;20.00;;;12.82;;
35969;SDS011;22448;51.298;6.430;2024-01-30T10:55:13;25.23;;;14.52;;
35969;SDS011;22448;51.298;6.430;2024-01-30T10:57:42;25.70;;;14.75;;
35969;SDS011;22448;51.298;6.430;2024-01-30T11:00:10;28.38;;;14.48;;
35969;SDS011;22448;51.298;6.430;2024-01-30T11:02:43;27.25;;;14.40;;
35969;SDS011;22448;51.298;6.430;2024-01-30T11:05:12;33.55;;;14.70;;
35969;SDS011;22448;51.298;6.430;2024-01-30T11:07:40;21.77;;;13.23;;
35969;SDS011;22448;51.298;6.430;2024-01-30T11:10:08;24.00;;;13.73;;
35969;SDS011;22448;51.298;6.430;2024-01-30T11:12:39;25.23;;;13.88;;
35969;SDS011;22448;51.298;6.430;2024-01-30T11:15:08;21.50;;;13.88;;
35969;SDS011;22448;51.298;6.430;2024-01-30T11:18:10;23.90;;;14.27;;
35969;SDS011;22448;51.298;6.430;2024-01-30T11:20:30;28.13;;;15.10;;
35969;SDS011;22448;51.298;6.430;2024-01-30T11:22:59;28.13;;;13.88;;
35969;SDS011;22448;51.298;6.430;2024-01-30T11:25:28;23.92;;;12.98;;
35969;SDS011;22448;51.298;6.430;2024-01-30T11:27:58;26.30;;;12.63;;
35969;SDS011;22448;51.298;6.430;2024-01-30T11:30:26;25.58;;;12.73;;
35969;SDS011;22448;51.298;6.430;2024-01-30T11:33:28;27.60;;;11.25;;
35969;SDS011;22448;51.298;6.430;2024-01-30T11:38:27;28.27;;;11.77;;
35969;SDS011;22448;51.298;6.430;2024-01-30T11:40:55;20.92;;;10.23;;
35969;SDS011;22448;51.298;6.430;2024-01-30T11:43:24;25.38;;;10.13;;
35969;SDS011;22448;51.298;6.430;2024-01-30T11:45:52;23.83;;;9.52;;
35969;SDS011;22448;51.298;6.430;2024-01-30T11:48:19;17.35;;;8.77;;
35969;SDS011;22448;51.298;6.430;2024-01-30T11:50:46;29.30;;;10.07;;
35969;SDS011;22448;51.298;6.430;2024-01-30T11:53:13;21.50;;;9.40;;
35969;SDS011;22448;51.298;6.430;2024-01-30T11:55:40;18.00;;;9.07;;
35969;SDS011;22448;51.298;6.430;2024-01-30T11:58:07;15.88;;;9.27;;
35969;SDS011;22448;51.298;6.430;2024-01-30T12:00:34;24.02;;;8.90;;
35969;SDS011;22448;51.298;6.430;2024-01-30T12:03:02;19.40;;;8.98;;
35969;SDS011;22448;51.298;6.430;2024-01-30T12:05:30;17.45;;;8.48;;
35969;SDS011;22448;51.298;6.430;2024-01-30T12:07:58;19.88;;;9.10;;
35969;SDS011;22448;51.298;6.430;2024-01-30T12:10:27;25.17;;;8.57;;
35969;SDS011;22448;51.298;6.430;2024-01-30T12:12:54;17.02;;;8.32;;
35969;SDS011;22448;51.298;6.430;2024-01-30T12:15:22;25.80;;;9.05;;
35969;SDS011;22448;51.298;6.430;2024-01-30T12:17:49;15.68;;;8.65;;
35969;SDS011;22448;51.298;6.430;2024-01-30T12:20:19;18.40;;;8.23;;
35969;SDS011;22448;51.298;6.430;2024-01-30T12:22:49;24.88;;;8.95;;
35969;SDS011;22448;51.298;6.430;2024-01-30T12:25:17;20.88;;;9.10;;
35969;SDS011;22448;51.298;6.430;2024-01-30T12:27:49;26.02;;;8.85;;
35969;SDS011;22448;51.298;6.430;2024-01-30T12:30:18;23.83;;;9.15;;
35969;SDS011;22448;51.298;6.430;2024-01-30T12:32:47;25.50;;;9.48;;
35969;SDS011;22448;51.298;6.430;2024-01-30T12:35:16;23.55;;;9.25;;
35969;SDS011;22448;51.298;6.430;2024-01-30T12:37:45;31.63;;;9.25;;
35969;SDS011;22448;51.298;6.430;2024-01-30T12:40:14;22.75;;;9.68;;
35969;SDS011;22448;51.298;6.430;2024-01-30T12:42:41;17.05;;;9.18;;
35969;SDS011;22448;51.298;6.430;2024-01-30T12:45:09;22.10;;;10.80;;
35969;SDS011;22448;51.298;6.430;2024-01-30T12:47:37;24.50;;;10.52;;
35969;SDS011;22448;51.298;6.430;2024-01-30T12:50:04;20.55;;;10.90;;
35969;SDS011;22448;51.298;6.430;2024-01-30T12:52:31;24.17;;;10.43;;
35969;SDS011;22448;51.298;6.430;2024-01-30T12:54:58;24.08;;;10.68;;
35969;SDS011;22448;51.298;6.430;2024-01-30T12:57:25;20.17;;;10.00;;
35969;SDS011;22448;51.298;6.430;2024-01-30T12:59:52;25.17;;;10.73;;
35969;SDS011;22448;51.298;6.430;2024-01-30T13:02:19;28.50;;;12.35;;
35969;SDS011;22448;51.298;6.430;2024-01-30T13:04:46;29.05;;;12.68;;
35969;SDS011;22448;51.298;6.430;2024-01-30T13:07:16;28.02;;;10.55;;
35969;SDS011;22448;51.298;6.430;2024-01-30T13:09:43;23.85;;;10.93;;
35969;SDS011;22448;51.298;6.430;2024-01-30T13:12:10;23.90;;;11.00;;
35969;SDS011;22448;51.298;6.430;2024-01-30T13:14:37;24.05;;;11.32;;
35969;SDS011;22448;51.298;6.430;2024-01-30T13:17:04;33.33;;;10.88;;
35969;SDS011;22448;51.298;6.430;2024-01-30T13:19:32;23.85;;;11.88;;
35969;SDS011;22448;51.298;6.430;2024-01-30T13:21:58;30.65;;;11.10;;
35969;SDS011;22448;51.298;6.430;2024-01-30T13:24:25;20.83;;;9.93;;
35969;SDS011;22448;51.298;6.430;2024-01-30T13:26:53;19.52;;;10.10;;
35969;SDS011;22448;51.298;6.430;2024-01-30T13:29:20;26.83;;;9.45;;
35969;SDS011;22448;51.298;6.430;2024-01-30T13:31:47;24.13;;;10.55;;
35969;SDS011;22448;51.298;6.430;2024-01-30T13:34:15;20.10;;;9.25;;
35969;SDS011;22448;51.298;6.430;2024-01-30T13:36:42;25.83;;;10.43;;
35969;SDS011;22448;51.298;6.430;2024-01-30T13:39:09;17.40;;;9.05;;
35969;SDS011;22448;51.298;6.430;2024-01-30T13:41:38;22.23;;;10.45;;
35969;SDS011;22448;51.298;6.430;2024-01-30T13:44:06;26.13;;;10.52;;
35969;SDS011;22448;51.298;6.430;2024-01-30T13:46:33;24.00;;;10.77;;
35969;SDS011;22448;51.298;6.430;2024-01-30T13:49:01;22.50;;;10.57;;
35969;SDS011;22448;51.298;6.430;2024-01-30T13:51:29;22.27;;;10.60;;
35969;SDS011;22448;51.298;6.430;2024-01-30T13:53:55;17.58;;;10.38;;
35969;SDS011;22448;51.298;6.430;2024-01-30T13:56:22;20.88;;;12.05;;
35969;SDS011;22448;51.298;6.430;2024-01-30T13:58:50;27.55;;;11.40;;
35969;SDS011;22448;51.298;6.430;2024-01-30T14:01:17;22.48;;;10.23;;
35969;SDS011;22448;51.298;6.430;2024-01-30T14:03:45;17.23;;;9.77;;
35969;SDS011;22448;51.298;6.430;2024-01-30T14:06:12;21.13;;;10.10;;
35969;SDS011;22448;51.298;6.430;2024-01-30T14:08:39;32.25;;;13.15;;
35969;SDS011;22448;51.298;6.430;2024-01-30T14:11:10;26.80;;;11.82;;
35969;SDS011;22448;51.298;6.430;2024-01-30T14:13:37;27.45;;;12.45;;
35969;SDS011;22448;51.298;6.430;2024-01-30T14:16:03;25.17;;;11.10;;
35969;SDS011;22448;51.298;6.430;2024-01-30T14:18:33;20.08;;;9.85;;
35969;SDS011;22448;51.298;6.430;2024-01-30T14:21:00;19.67;;;9.50;;
35969;SDS011;22448;51.298;6.430;2024-01-30T14:23:27;17.20;;;7.75;;
35969;SDS011;22448;51.298;6.430;2024-01-30T14:25:54;19.35;;;8.07;;
35969;SDS011;22448;51.298;6.430;2024-01-30T14:28:21;17.48;;;7.68;;